createdAt,value
2023-11-02T00:00:00.646Z,94813.25
2023-11-02T00:02:30.973Z,94827.88
2023-11-02T00:04:59.492Z,94829.91
2023-11-02T00:07:32.283Z,94823.91
2023-11-02T00:10:00.570Z,94818.84
2023-11-02T00:12:30.782Z,94805.47
2023-11-02T00:15:01.347Z,94785.31
2023-11-02T00:18:02.666Z,94766.25
2023-11-02T00:20:39.412Z,94746.22
2023-11-02T00:23:08.784Z,94751.63
2023-11-02T00:25:53.527Z,94753.00
2023-11-02T00:28:21.848Z,94745.16
2023-11-02T00:30:52.224Z,94741.78
2023-11-02T00:33:23.401Z,94724.25
2023-11-02T00:35:52.456Z,94713.03
2023-11-02T00:38:27.549Z,94717.19
2023-11-02T00:40:57.205Z,94711.94
2023-11-02T00:43:26.151Z,94693.75
2023-11-02T00:45:55.314Z,94705.56
2023-11-02T00:48:29.788Z,94688.94
2023-11-02T00:51:15.406Z,94692.13
2023-11-02T00:53:46.923Z,94692.19
2023-11-02T00:56:17.823Z,94675.56
2023-11-02T00:58:49.144Z,94671.50
2023-11-02T01:01:19.449Z,94663.19
2023-11-02T01:03:51.704Z,94654.84
2023-11-02T01:06:23.049Z,94653.88
2023-11-02T01:08:57.092Z,94645.75
2023-11-02T01:11:30.015Z,94648.97
2023-11-02T01:13:58.553Z,94641.13
2023-11-02T01:16:29.127Z,94641.41
2023-11-02T01:19:00.292Z,94638.22
2023-11-02T01:21:31.560Z,94625.91
2023-11-02T01:24:08.853Z,94622.53
2023-11-02T01:27:02.336Z,94615.19
2023-11-02T01:29:32.108Z,94603.19
2023-11-02T01:32:02.148Z,94605.31
2023-11-02T01:34:31.699Z,94622.53
2023-11-02T01:36:59.802Z,94612.84
2023-11-02T01:40:09.319Z,94615.19
2023-11-02T01:42:44.344Z,94596.88
2023-11-02T01:45:17.574Z,94586.13
2023-11-02T01:48:11.925Z,94572.59
2023-11-02T01:50:48.707Z,94564.47
2023-11-02T01:53:30.151Z,94563.38
2023-11-02T01:56:09.425Z,94560.00
2023-11-02T01:58:48.863Z,94553.22
2023-11-02T02:01:24.778Z,94565.72
2023-11-02T02:04:03.832Z,94559.59
2023-11-02T02:06:42.690Z,94568.41
2023-11-02T02:09:26.725Z,94573.53
2023-11-02T02:12:06.780Z,94560.34
2023-11-02T02:14:47.977Z,94556.09
2023-11-02T02:17:21.894Z,94540.88
2023-11-02T02:20:02.729Z,94531.97
2023-11-02T02:22:39.266Z,94530.13
2023-11-02T02:25:19.568Z,94519.66
2023-11-02T02:28:20.699Z,94521.81
2023-11-02T02:31:09.340Z,94526.84
2023-11-02T02:33:57.710Z,94508.56
2023-11-02T02:36:36.669Z,94515.44
2023-11-02T02:39:07.227Z,94503.75
2023-11-02T02:41:40.356Z,94498.97
2023-11-02T02:44:11.305Z,94492.41
2023-11-02T02:46:41.086Z,94504.69
2023-11-02T02:49:09.433Z,94496.56
2023-11-02T02:51:42.810Z,94481.47
2023-11-02T02:54:14.464Z,94463.56
2023-11-02T02:56:45.003Z,94473.84
2023-11-02T02:59:18.637Z,94472.28
2023-11-02T03:01:49.505Z,94457.19
2023-11-02T03:04:20.416Z,94444.25
2023-11-02T03:06:52.641Z,94442.72
2023-11-02T03:09:23.715Z,94430.72
2023-11-02T03:11:55.597Z,94429.94
2023-11-02T03:14:25.081Z,94422.41
2023-11-02T03:17:02.200Z,94417.19
2023-11-02T03:19:51.279Z,94423.94
2023-11-02T03:22:22.614Z,94406.13
2023-11-02T03:25:07.736Z,94401.38
2023-11-02T03:27:49.105Z,94384.03
2023-11-02T03:30:23.146Z,94391.75
2023-11-02T03:33:01.500Z,94389.59
2023-11-02T03:35:36.420Z,94387.19
2023-11-02T03:38:23.450Z,94394.44
2023-11-02T03:41:06.911Z,94396.91
2023-11-02T03:43:43.708Z,94375.84
2023-11-02T03:46:21.114Z,94367.53
2023-11-02T03:48:59.937Z,94368.31
2023-11-02T03:51:39.669Z,94381.53
2023-11-02T03:54:23.009Z,94381.41
2023-11-02T03:57:04.765Z,94372.97
2023-11-02T03:59:57.707Z,94357.16
2023-11-02T04:02:31.363Z,94364.81
2023-11-02T04:05:13.794Z,94352.81
2023-11-02T04:07:56.020Z,94348.84
2023-11-02T04:10:28.519Z,94365.72
2023-11-02T04:13:06.607Z,94371.25
2023-11-02T04:15:34.889Z,94367.09
2023-11-02T04:18:03.796Z,94349.25
2023-11-02T04:20:32.006Z,94329.91
2023-11-02T04:23:00.507Z,94326.97
2023-11-02T04:25:30.533Z,94311.94
2023-11-02T04:28:01.527Z,94305.75
2023-11-02T04:30:29.868Z,94311.59
2023-11-02T04:32:58.169Z,94272.56
2023-11-02T04:35:26.357Z,94233.63
2023-11-02T04:38:05.663Z,94224.88
2023-11-02T04:40:35.282Z,94225.00
2023-11-02T04:43:03.846Z,94223.34
2023-11-02T04:45:32.474Z,94222.41
2023-11-02T04:48:00.663Z,94212.41
2023-11-02T04:50:29.731Z,94168.75
2023-11-02T04:52:57.901Z,94149.38
2023-11-02T04:55:26.066Z,94167.97
2023-11-02T04:57:55.608Z,94161.50
2023-11-02T05:00:24.385Z,94158.28
2023-11-02T05:02:52.608Z,94169.97
2023-11-02T05:05:21.213Z,94167.50
2023-11-02T05:07:49.315Z,94161.19
2023-11-02T05:10:17.433Z,94164.72
2023-11-02T05:12:46.624Z,94153.50
2023-11-02T05:15:17.126Z,94122.41
2023-11-02T05:17:45.316Z,94100.88
2023-11-02T05:20:13.445Z,94071.19
2023-11-02T05:22:41.791Z,94083.50
2023-11-02T05:25:10.177Z,94091.50
2023-11-02T05:27:38.315Z,94093.22
2023-11-02T05:30:08.710Z,94079.53
2023-11-02T05:32:39.873Z,94078.31
2023-11-02T05:35:10.637Z,94059.72
2023-11-02T05:37:39.009Z,94070.03
2023-11-02T05:40:08.981Z,94064.66
2023-11-02T05:42:37.339Z,94066.34
2023-11-02T05:45:06.687Z,94092.63
2023-11-02T05:47:34.833Z,94106.63
2023-11-02T05:50:04.631Z,94112.47
2023-11-02T05:52:33.011Z,94124.13
2023-11-02T05:55:01.353Z,94120.44
2023-11-02T05:57:29.634Z,94114.44
2023-11-02T05:59:58.547Z,94115.38
2023-11-02T06:02:26.993Z,94108.13
2023-11-02T06:04:55.281Z,94095.97
2023-11-02T06:07:25.105Z,94092.56
2023-11-02T06:09:53.341Z,94086.72
2023-11-02T06:12:23.844Z,94090.88
2023-11-02T06:14:52.126Z,94091.03
2023-11-02T06:17:19.542Z,94103.03
2023-11-02T06:19:47.847Z,94085.81
2023-11-02T06:22:16.131Z,94067.34
2023-11-02T06:24:46.835Z,94059.47
2023-11-02T06:27:15.234Z,94060.72
2023-11-02T06:29:43.449Z,94057.94
2023-11-02T06:32:11.573Z,94059.78
2023-11-02T06:34:40.967Z,94053.34
2023-11-02T06:37:10.116Z,94048.41
2023-11-02T06:39:38.640Z,94046.88
2023-11-02T06:42:09.423Z,94042.28
2023-11-02T06:44:40.531Z,94037.22
2023-11-02T06:47:09.020Z,94034.44
2023-11-02T06:49:37.151Z,94016.31
2023-11-02T06:52:06.304Z,94002.47
2023-11-02T06:54:34.757Z,93991.56
2023-11-02T06:57:03.895Z,94005.28
2023-11-02T06:59:33.485Z,94005.41
2023-11-02T07:02:01.614Z,94002.94
2023-11-02T07:04:29.901Z,94019.09
2023-11-02T07:06:58.105Z,94010.16
2023-11-02T07:09:26.279Z,94019.22
2023-11-02T07:11:54.475Z,94015.69
2023-11-02T07:14:23.106Z,94017.38
2023-11-02T07:16:52.606Z,94017.97
2023-11-02T07:19:20.881Z,94023.94
2023-11-02T07:21:49.141Z,94021.16
2023-11-02T07:24:18.230Z,94019.00
2023-11-02T07:26:46.482Z,94005.59
2023-11-02T07:29:14.804Z,94003.63
2023-11-02T07:31:43.735Z,94001.75
2023-11-02T07:34:14.782Z,94002.69
2023-11-02T07:36:43.053Z,93980.22
2023-11-02T07:39:14.291Z,93980.66
2023-11-02T07:41:43.125Z,93973.72
2023-11-02T07:44:11.384Z,93980.13
2023-11-02T07:46:39.703Z,93969.00
2023-11-02T07:49:08.080Z,93970.28
2023-11-02T07:51:37.927Z,93961.41
2023-11-02T07:54:08.581Z,93963.22
2023-11-02T07:56:37.638Z,93962.84
2023-11-02T07:59:06.011Z,93959.84
2023-11-02T08:01:34.334Z,93945.44
2023-11-02T08:04:03.612Z,93952.19
2023-11-02T08:06:33.281Z,93933.97
2023-11-02T08:09:03.080Z,93940.09
2023-11-02T08:11:31.345Z,93934.97
2023-11-02T08:13:59.578Z,93930.50
2023-11-02T08:16:27.839Z,93925.25
2023-11-02T08:18:56.028Z,93926.47
2023-11-02T08:21:24.313Z,93915.53
2023-11-02T08:23:52.538Z,93921.75
2023-11-02T08:26:24.424Z,93919.13
2023-11-02T08:28:53.746Z,93916.50
2023-11-02T08:31:25.530Z,93918.03
2023-11-02T08:33:54.095Z,93896.75
2023-11-02T08:36:22.928Z,93887.94
2023-11-02T08:38:51.264Z,93889.56
2023-11-02T08:41:22.750Z,93874.41
2023-11-02T08:43:52.003Z,93870.91
2023-11-02T08:46:21.755Z,93857.25
2023-11-02T08:48:51.306Z,93854.97
2023-11-02T08:51:20.973Z,93875.09
2023-11-02T08:53:49.673Z,93880.34
2023-11-02T08:56:18.085Z,93873.34
2023-11-02T08:58:49.169Z,93871.69
2023-11-02T09:01:21.936Z,93876.50
2023-11-02T09:03:52.610Z,93890.56
2023-11-02T09:06:21.819Z,93902.81
2023-11-02T09:08:50.952Z,93916.22
2023-11-02T09:11:20.650Z,93917.66
2023-11-02T09:13:50.361Z,93919.81
2023-11-02T09:16:18.655Z,93938.41
2023-11-02T09:18:47.116Z,93942.88
2023-11-02T09:21:15.578Z,93948.25
2023-11-02T09:23:45.395Z,93964.19
2023-11-02T09:26:14.172Z,93966.63
2023-11-02T09:28:42.452Z,93976.34
2023-11-02T09:31:14.252Z,93979.91
2023-11-02T09:33:42.685Z,93989.19
2023-11-02T09:36:11.541Z,94002.88
2023-11-02T09:38:39.858Z,94010.88
2023-11-02T09:41:08.401Z,94019.81
2023-11-02T09:43:37.225Z,94013.44
2023-11-02T09:46:06.204Z,94023.06
2023-11-02T09:48:35.941Z,94026.88
2023-11-02T09:51:04.416Z,94025.75
2023-11-02T09:53:33.383Z,94024.97
2023-11-02T09:56:02.332Z,94021.72
2023-11-02T09:58:31.500Z,94026.88
2023-11-02T10:01:01.665Z,94035.69
2023-11-02T10:03:30.008Z,94032.28
2023-11-02T10:05:59.754Z,94041.22
2023-11-02T10:08:28.008Z,94051.06
2023-11-02T10:11:12.372Z,94063.09
2023-11-02T10:13:40.875Z,94074.47
2023-11-02T10:16:10.022Z,94078.16
2023-11-02T10:18:38.359Z,94081.88
2023-11-02T10:21:10.057Z,94074.47
2023-11-02T10:23:56.587Z,94077.81
2023-11-02T10:26:27.064Z,94081.16
2023-11-02T10:28:57.010Z,94077.06
2023-11-02T10:31:28.817Z,94069.34
2023-11-02T10:33:57.738Z,94060.00
2023-11-02T10:36:27.694Z,94049.16
2023-11-02T10:38:57.714Z,94044.88
2023-11-02T10:41:27.773Z,94026.66
2023-11-02T10:43:59.285Z,94025.69
2023-11-02T10:46:29.166Z,94019.94
2023-11-02T10:49:01.502Z,94013.41
2023-11-02T10:51:32.190Z,94014.28
2023-11-02T10:54:11.378Z,94008.72
2023-11-02T10:56:43.445Z,94011.88
2023-11-02T10:59:12.876Z,93996.09
2023-11-02T11:01:41.137Z,93974.09
2023-11-02T11:04:12.435Z,93972.16
2023-11-02T11:06:44.144Z,93972.81
2023-11-02T11:09:14.138Z,93955.22
2023-11-02T11:11:43.209Z,93948.91
2023-11-02T11:14:11.550Z,93951.06
2023-11-02T11:16:43.015Z,93966.34
2023-11-02T11:19:12.429Z,93956.19
2023-11-02T11:21:44.669Z,93940.47
2023-11-02T11:24:17.609Z,93922.13
2023-11-02T11:26:48.953Z,93909.66
2023-11-02T11:29:39.982Z,93890.50
2023-11-02T11:32:10.387Z,93887.31
2023-11-02T11:35:18.372Z,93884.91
2023-11-02T11:37:51.142Z,93879.38
2023-11-02T11:40:33.745Z,93868.16
2023-11-02T11:43:09.923Z,93867.50
2023-11-02T11:45:39.598Z,93851.13
2023-11-02T11:48:09.769Z,93824.31
2023-11-02T11:50:40.189Z,93819.84
2023-11-02T11:53:20.031Z,93831.09
2023-11-02T11:55:49.879Z,93837.22
2023-11-02T11:58:20.338Z,93814.94
2023-11-02T12:01:18.603Z,93803.97
2023-11-02T12:03:48.574Z,93792.75
2023-11-02T12:06:18.147Z,93792.13
2023-11-02T12:08:50.265Z,93792.88
2023-11-02T12:11:25.277Z,93790.25
2023-11-02T12:13:56.516Z,93821.38
2023-11-02T12:16:31.732Z,93832.41
2023-11-02T12:19:00.511Z,93816.50
2023-11-02T12:21:29.059Z,93802.94
2023-11-02T12:23:58.916Z,93796.19
2023-11-02T12:26:28.851Z,93783.94
2023-11-02T12:28:58.884Z,93780.59
2023-11-02T12:31:29.439Z,93791.75
2023-11-02T12:33:57.753Z,93792.59
2023-11-02T12:36:26.380Z,93780.91
2023-11-02T12:38:55.408Z,93752.41
2023-11-02T12:41:29.382Z,93735.19
2023-11-02T12:44:08.417Z,93713.34
2023-11-02T12:46:39.284Z,93719.22
2023-11-02T12:49:20.662Z,93737.25
2023-11-02T12:52:05.886Z,93765.97
2023-11-02T12:54:34.742Z,93795.44
2023-11-02T12:57:06.903Z,93815.22
2023-11-02T12:59:38.901Z,93818.00
2023-11-02T13:02:07.794Z,93820.63
2023-11-02T13:04:54.242Z,93801.19
2023-11-02T13:07:24.730Z,93798.44
2023-11-02T13:10:03.463Z,93800.75
2023-11-02T13:12:35.037Z,93809.69
2023-11-02T13:15:06.801Z,93816.91
2023-11-02T13:17:35.108Z,93816.00
2023-11-02T13:20:04.910Z,93816.63
2023-11-02T13:22:32.992Z,93828.19
2023-11-02T13:25:01.540Z,93832.69
2023-11-02T13:27:30.455Z,93839.13
2023-11-02T13:30:00.718Z,93846.03
2023-11-02T13:32:30.517Z,93834.16
2023-11-02T13:34:58.960Z,93823.22
2023-11-02T13:37:28.299Z,93808.78
2023-11-02T13:39:56.576Z,93776.03
2023-11-02T13:42:24.851Z,93797.94
2023-11-02T13:44:53.490Z,93804.78
2023-11-02T13:47:24.594Z,93784.38
2023-11-02T13:49:53.107Z,93790.13
2023-11-02T13:52:21.788Z,93765.25
2023-11-02T13:54:50.079Z,93782.69
2023-11-02T13:57:18.389Z,93805.59
2023-11-02T13:59:46.500Z,93787.28
2023-11-02T14:02:16.717Z,93776.34
2023-11-02T14:04:47.330Z,93773.28
2023-11-02T14:07:17.549Z,93768.69
2023-11-02T14:09:45.906Z,93759.31
2023-11-02T14:12:14.023Z,93746.59
2023-11-02T14:14:42.128Z,93749.97
2023-11-02T14:17:10.374Z,93755.28
2023-11-02T14:19:38.634Z,93744.06
2023-11-02T14:22:09.196Z,93732.72
2023-11-02T14:24:37.330Z,93735.22
2023-11-02T14:27:05.667Z,93720.03
2023-11-02T14:29:34.134Z,93704.41
2023-11-02T14:32:02.281Z,93684.13
2023-11-02T14:34:30.596Z,93698.19
2023-11-02T14:36:59.193Z,93690.66
2023-11-02T14:39:28.996Z,93703.41
2023-11-02T14:41:57.429Z,93709.53
2023-11-02T14:44:25.684Z,93694.72
2023-11-02T14:46:53.856Z,93727.78
2023-11-02T14:49:22.106Z,93739.00
2023-11-02T14:51:50.863Z,93727.00
2023-11-02T14:54:19.636Z,93723.94
2023-11-02T14:56:49.386Z,93712.72
2023-11-02T14:59:18.319Z,93705.31
2023-11-02T15:01:46.465Z,93689.72
2023-11-02T15:04:16.636Z,93688.19
2023-11-02T15:06:45.388Z,93664.97
2023-11-02T15:09:16.435Z,93649.91
2023-11-02T15:11:44.780Z,93665.50
2023-11-02T15:14:15.507Z,93680.34
2023-11-02T15:16:45.910Z,93693.03
2023-11-02T15:19:14.294Z,93688.22
2023-11-02T15:21:46.520Z,93681.13
2023-11-02T15:24:14.931Z,93678.16
2023-11-02T15:26:43.345Z,93664.66
2023-11-02T15:29:12.629Z,93637.63
2023-11-02T15:31:42.226Z,93621.03
2023-11-02T15:34:10.433Z,93602.94
2023-11-02T15:36:39.389Z,93606.19
2023-11-02T15:39:11.419Z,93613.38
2023-11-02T15:41:39.902Z,93615.97
2023-11-02T15:44:08.655Z,93631.22
2023-11-02T15:46:42.466Z,93646.25
2023-11-02T15:49:11.168Z,93628.38
2023-11-02T15:51:44.406Z,93630.81
2023-11-02T15:54:13.410Z,93638.88
2023-11-02T15:56:41.678Z,93632.69
2023-11-02T15:59:10.279Z,93637.28
2023-11-02T16:01:38.519Z,93644.03
2023-11-02T16:04:09.334Z,93652.22
2023-11-02T16:06:38.307Z,93652.63
2023-11-02T16:09:06.688Z,93656.84
2023-11-02T16:11:34.825Z,93674.59
2023-11-02T16:14:04.680Z,93671.53
2023-11-02T16:16:32.998Z,93666.94
2023-11-02T16:19:01.227Z,93643.84
2023-11-02T16:21:31.031Z,93642.13
2023-11-02T16:23:59.332Z,93625.84
2023-11-02T16:26:27.545Z,93613.63
2023-11-02T16:28:57.443Z,93601.41
2023-11-02T16:31:26.322Z,93592.22
2023-11-02T16:33:55.103Z,93594.28
2023-11-02T16:36:45.053Z,93593.38
2023-11-02T16:39:13.877Z,93607.09
2023-11-02T16:41:46.428Z,93600.53
2023-11-02T16:44:15.886Z,93594.00
2023-11-02T16:46:44.849Z,93606.31
2023-11-02T16:49:13.582Z,93599.34
2023-11-02T16:51:44.296Z,93601.97
2023-11-02T16:54:12.805Z,93609.59
2023-11-02T16:56:41.851Z,93599.25
2023-11-02T16:59:11.686Z,93600.53
2023-11-02T17:01:40.377Z,93585.91
2023-11-02T17:04:09.735Z,93600.09
2023-11-02T17:06:38.262Z,93604.13
2023-11-02T17:09:10.216Z,93595.19
2023-11-02T17:11:39.362Z,93591.94
2023-11-02T17:14:08.144Z,93587.81
2023-11-02T17:16:36.553Z,93594.53
2023-11-02T17:19:05.478Z,93594.31
2023-11-02T17:21:33.815Z,93581.56
2023-11-02T17:24:02.096Z,93570.03
2023-11-02T17:26:31.755Z,93578.78
2023-11-02T17:29:00.876Z,93564.63
2023-11-02T17:31:30.451Z,93574.38
2023-11-02T17:33:58.802Z,93581.06
2023-11-02T17:36:29.330Z,93590.81
2023-11-02T17:39:00.621Z,93602.53
2023-11-02T17:41:31.055Z,93582.91
2023-11-02T17:44:00.723Z,93569.72
2023-11-02T17:46:29.220Z,93569.13
2023-11-02T17:48:57.491Z,93556.25
2023-11-02T17:51:26.636Z,93551.34
2023-11-02T17:53:55.195Z,93545.13
2023-11-02T17:56:23.444Z,93551.59
2023-11-02T17:58:51.544Z,93563.56
2023-11-02T18:01:21.923Z,93569.69
2023-11-02T18:03:50.068Z,93563.06
2023-11-02T18:06:19.152Z,93550.06
2023-11-02T18:08:47.486Z,93546.13
2023-11-02T18:11:15.763Z,93549.69
2023-11-02T18:13:44.030Z,93550.34
2023-11-02T18:16:15.296Z,93537.47
2023-11-02T18:18:44.911Z,93537.22
2023-11-02T18:21:13.366Z,93540.75
2023-11-02T18:23:41.610Z,93520.53
2023-11-02T18:26:13.719Z,93503.19
2023-11-02T18:28:41.977Z,93479.13
2023-11-02T18:31:10.267Z,93476.97
2023-11-02T18:33:39.342Z,93459.78
2023-11-02T18:36:11.954Z,93463.16
2023-11-02T18:38:40.369Z,93465.47
2023-11-02T18:41:08.699Z,93455.03
2023-11-02T18:43:38.486Z,93445.69
2023-11-02T18:46:07.287Z,93451.53
2023-11-02T18:48:35.500Z,93474.56
2023-11-02T18:51:06.054Z,93493.19
2023-11-02T18:53:35.779Z,93512.69
2023-11-02T18:56:05.263Z,93521.31
2023-11-02T18:58:33.493Z,93533.13
2023-11-02T19:01:01.832Z,93526.56
2023-11-02T19:03:30.303Z,93534.88
2023-11-02T19:05:58.765Z,93533.34
2023-11-02T19:08:27.583Z,93529.19
2023-11-02T19:11:00.982Z,93511.84
2023-11-02T19:13:31.682Z,93500.81
2023-11-02T19:16:00.123Z,93489.75
2023-11-02T19:18:28.480Z,93480.84
2023-11-02T19:20:58.477Z,93488.97
2023-11-02T19:23:28.131Z,93483.00
2023-11-02T19:25:57.956Z,93476.19
2023-11-02T19:28:26.256Z,93468.16
2023-11-02T19:30:54.694Z,93479.50
2023-11-02T19:33:23.039Z,93495.03
2023-11-02T19:35:51.538Z,93482.03
2023-11-02T19:38:21.653Z,93472.22
2023-11-02T19:40:50.015Z,93453.50
2023-11-02T19:43:25.272Z,93469.63
2023-11-02T19:45:53.803Z,93463.31
2023-11-02T19:48:22.852Z,93465.47
2023-11-02T19:50:53.042Z,93462.41
2023-11-02T19:53:21.678Z,93468.72
2023-11-02T19:55:49.939Z,93483.28
2023-11-02T19:58:19.873Z,93484.81
2023-11-02T20:00:49.432Z,93484.31
2023-11-02T20:03:17.747Z,93486.25
2023-11-02T20:05:46.491Z,93499.25
2023-11-02T20:08:14.695Z,93495.06
2023-11-02T20:10:42.912Z,93482.41
2023-11-02T20:13:11.081Z,93462.22
2023-11-02T20:15:40.869Z,93453.44
2023-11-02T20:18:09.132Z,93451.25
2023-11-02T20:20:38.169Z,93442.56
2023-11-02T20:23:07.133Z,93442.13
2023-11-02T20:25:36.406Z,93437.41
2023-11-02T20:28:05.413Z,93441.88
2023-11-02T20:30:34.695Z,93434.47
2023-11-02T20:33:04.420Z,93436.66
2023-11-02T20:35:32.564Z,93439.50
2023-11-02T20:38:00.681Z,93443.25
2023-11-02T20:40:28.787Z,93457.38
2023-11-02T20:42:56.897Z,93451.72
2023-11-02T20:45:25.061Z,93462.31
2023-11-02T20:47:53.302Z,93466.47
2023-11-02T20:50:22.875Z,93481.94
2023-11-02T20:52:51.017Z,93491.72
2023-11-02T20:55:19.214Z,93501.03
2023-11-02T20:57:47.841Z,93507.09
2023-11-02T21:00:21.805Z,93507.59
2023-11-02T21:02:51.302Z,93497.84
2023-11-02T21:05:20.128Z,93493.78
2023-11-02T21:07:50.274Z,93482.69
2023-11-02T21:10:18.562Z,93477.47
2023-11-02T21:12:46.834Z,93461.94
2023-11-02T21:15:14.990Z,93457.59
2023-11-02T21:17:43.229Z,93442.25
2023-11-02T21:20:12.539Z,93433.53
2023-11-02T21:22:40.764Z,93425.13
2023-11-02T21:25:11.257Z,93409.53
2023-11-02T21:27:40.542Z,93398.63
2023-11-02T21:30:10.901Z,93397.06
2023-11-02T21:32:39.145Z,93402.03
2023-11-02T21:35:08.671Z,93415.25
2023-11-02T21:37:36.920Z,93404.69
2023-11-02T21:40:06.668Z,93398.41
2023-11-02T21:42:36.447Z,93396.56
2023-11-02T21:45:05.938Z,93408.50
2023-11-02T21:47:34.265Z,93403.75
2023-11-02T21:50:02.403Z,93396.16
2023-11-02T21:52:30.565Z,93394.00
2023-11-02T21:54:58.757Z,93399.34
2023-11-02T21:57:26.859Z,93401.19
2023-11-02T21:59:56.401Z,93404.44
2023-11-02T22:02:24.511Z,93401.25
2023-11-02T22:04:52.720Z,93410.69
2023-11-02T22:07:20.880Z,93395.53
2023-11-02T22:09:51.362Z,93407.22
2023-11-02T22:12:19.522Z,93389.59
2023-11-02T22:14:47.933Z,93389.53
2023-11-02T22:17:17.478Z,93387.38
2023-11-02T22:19:46.062Z,93382.56
2023-11-02T22:22:15.632Z,93397.81
2023-11-02T22:24:43.832Z,93387.75
2023-11-02T22:27:12.295Z,93381.88
2023-11-02T22:29:42.185Z,93370.56
2023-11-02T22:32:10.718Z,93369.69
2023-11-02T22:34:40.267Z,93360.09
2023-11-02T22:37:08.681Z,93367.66
2023-11-02T22:39:37.118Z,93372.75
2023-11-02T22:42:06.235Z,93376.25
2023-11-02T22:44:34.945Z,93371.59
2023-11-02T22:47:03.322Z,93380.31
2023-11-02T22:49:31.473Z,93377.06
2023-11-02T22:52:01.098Z,93372.72
2023-11-02T22:54:29.240Z,93366.44
2023-11-02T22:56:57.317Z,93367.06
2023-11-02T22:59:25.409Z,93368.16
2023-11-02T23:01:55.591Z,93372.72
2023-11-02T23:04:24.974Z,93376.56
2023-11-02T23:06:53.193Z,93375.34
2023-11-02T23:09:22.761Z,93381.59
2023-11-02T23:11:51.038Z,93378.91
2023-11-02T23:14:19.146Z,93378.06
2023-11-02T23:16:47.323Z,93387.66
2023-11-02T23:19:15.934Z,93389.28
2023-11-02T23:21:44.337Z,93382.66
2023-11-02T23:24:12.442Z,93391.81
2023-11-02T23:26:42.518Z,93383.22
2023-11-02T23:29:10.695Z,93386.59
2023-11-02T23:31:39.474Z,93388.13
2023-11-02T23:34:08.049Z,93388.00
2023-11-02T23:36:36.295Z,93383.31
2023-11-02T23:39:04.756Z,93387.41
2023-11-02T23:41:37.179Z,93385.19
2023-11-02T23:44:07.320Z,93377.44
2023-11-02T23:46:35.460Z,93381.78
2023-11-02T23:49:03.708Z,93372.09
2023-11-02T23:51:31.966Z,93369.28
2023-11-02T23:54:00.193Z,93370.19
2023-11-02T23:56:35.880Z,93364.31
2023-11-02T23:59:04.151Z,93354.44
